createdAt,value
2018-08-20T00:00:16.759Z,1010.75
2018-08-20T00:01:16.784Z,1010.75
2018-08-20T00:02:16.807Z,1010.75
2018-08-20T00:03:16.832Z,1010.78
2018-08-20T00:04:16.857Z,1010.85
2018-08-20T00:05:16.881Z,1010.93
2018-08-20T00:06:16.905Z,1010.92
2018-08-20T00:07:16.930Z,1010.94
2018-08-20T00:08:16.955Z,1010.95
2018-08-20T00:09:16.980Z,1010.94
2018-08-20T00:10:17.005Z,1010.95
2018-08-20T00:12:17.055Z,1010.94
2018-08-20T00:13:17.078Z,1010.93
2018-08-20T00:14:17.102Z,1010.89
2018-08-20T00:15:17.128Z,1010.9
2018-08-20T00:16:17.153Z,1010.94
2018-08-20T00:17:17.177Z,1010.89
2018-08-20T00:18:17.201Z,1010.89
2018-08-20T00:19:17.226Z,1010.91
2018-08-20T00:20:17.250Z,1010.91
2018-08-20T00:21:17.274Z,1010.88
2018-08-20T00:22:17.299Z,1010.87
2018-08-20T00:23:17.324Z,1010.88
2018-08-20T00:24:17.347Z,1010.88
2018-08-20T00:25:17.372Z,1010.87
2018-08-20T00:26:17.397Z,1010.92
2018-08-20T00:27:17.422Z,1010.91
2018-08-20T00:28:17.446Z,1010.88
2018-08-20T00:29:17.471Z,1010.88
2018-08-20T00:30:17.496Z,1010.86
2018-08-20T00:31:17.519Z,1010.89
2018-08-20T00:32:17.544Z,1010.88
2018-08-20T00:33:17.569Z,1010.9
2018-08-20T00:34:17.593Z,1010.93
2018-08-20T00:35:17.619Z,1010.9
2018-08-20T00:36:17.642Z,1010.88
2018-08-20T00:37:17.667Z,1010.89
2018-08-20T00:38:17.691Z,1010.9
2018-08-20T00:39:17.716Z,1010.91
2018-08-20T00:40:17.741Z,1010.89
2018-08-20T00:41:17.765Z,1010.91
2018-08-20T00:42:17.791Z,1010.89
2018-08-20T00:44:17.838Z,1010.91
2018-08-20T00:45:17.863Z,1010.91
2018-08-20T00:46:17.887Z,1010.89
2018-08-20T00:47:17.912Z,1010.91
2018-08-20T00:48:17.937Z,1010.92
2018-08-20T00:49:17.961Z,1010.89
2018-08-20T00:50:17.985Z,1010.9
2018-08-20T00:51:18.010Z,1010.9
2018-08-20T00:52:18.034Z,1010.91
2018-08-20T00:53:18.058Z,1010.91
2018-08-20T00:54:18.088Z,1010.9
2018-08-20T00:55:18.108Z,1010.84
2018-08-20T00:56:18.135Z,1010.89
2018-08-20T00:57:18.157Z,1010.9
2018-08-20T00:58:18.183Z,1010.93
2018-08-20T01:00:18.231Z,1010.89
2018-08-20T01:01:18.254Z,1010.92
2018-08-20T01:02:18.279Z,1010.92
2018-08-20T01:03:18.303Z,1010.93
2018-08-20T01:04:18.328Z,1010.9
2018-08-20T01:05:18.353Z,1010.9
2018-08-20T01:06:18.377Z,1010.94
2018-08-20T01:07:18.402Z,1010.96
2018-08-20T01:08:18.426Z,1010.97
2018-08-20T01:09:18.451Z,1010.95
2018-08-20T01:10:18.476Z,1010.95
2018-08-20T01:11:18.501Z,1010.96
2018-08-20T01:12:18.525Z,1010.94
2018-08-20T01:13:18.551Z,1010.92
2018-08-20T01:14:18.574Z,1010.95
2018-08-20T01:16:18.623Z,1010.95
2018-08-20T01:17:18.647Z,1010.96
2018-08-20T01:18:18.673Z,1010.95
2018-08-20T01:19:18.696Z,1010.94
2018-08-20T01:20:18.724Z,1010.96
2018-08-20T01:21:18.748Z,1010.97
2018-08-20T01:22:18.771Z,1010.97
2018-08-20T01:23:18.795Z,1011.02
2018-08-20T01:24:18.818Z,1010.99
2018-08-20T01:25:18.844Z,1011.04
2018-08-20T01:26:18.867Z,1011.04
2018-08-20T01:27:18.894Z,1011.04
2018-08-20T01:28:18.920Z,1011.02
2018-08-20T01:29:18.945Z,1011.02
2018-08-20T01:30:18.968Z,1010.99
2018-08-20T01:32:19.015Z,1010.97
2018-08-20T01:33:19.041Z,1010.99
2018-08-20T01:34:19.065Z,1011
2018-08-20T01:35:19.089Z,1011.03
2018-08-20T01:36:19.112Z,1011.04
2018-08-20T01:37:19.137Z,1011.04
2018-08-20T01:38:19.162Z,1011.05
2018-08-20T01:39:19.187Z,1011.01
2018-08-20T01:40:19.211Z,1011.04
2018-08-20T01:41:19.237Z,1011.05
2018-08-20T01:42:19.260Z,1011.06
2018-08-20T01:43:19.286Z,1011.04
2018-08-20T01:44:19.310Z,1011.04
2018-08-20T01:45:19.435Z,1011.09
2018-08-20T01:47:19.384Z,1011.05
2018-08-20T01:48:19.407Z,1011.06
2018-08-20T01:49:19.433Z,1011.08
2018-08-20T01:50:19.459Z,1011.04
2018-08-20T01:51:19.482Z,1011.09
2018-08-20T01:52:19.506Z,1011.04
2018-08-20T01:53:19.531Z,1011.07
2018-08-20T01:54:19.556Z,1011.06
2018-08-20T01:55:19.579Z,1011.02
2018-08-20T01:56:19.604Z,1011.03
2018-08-20T01:57:19.631Z,1011.01
2018-08-20T01:58:19.653Z,1011.03
2018-08-20T01:59:19.681Z,1011.05
2018-08-20T02:00:19.702Z,1011.06
2018-08-20T02:01:19.733Z,1011.06
2018-08-20T02:02:19.752Z,1011.07
2018-08-20T02:03:19.775Z,1011.06
2018-08-20T02:04:19.802Z,1011.06
2018-08-20T02:05:19.827Z,1011.08
2018-08-20T02:06:19.848Z,1011.07
2018-08-20T02:07:19.873Z,1011.04
2018-08-20T02:08:19.898Z,1011.08
2018-08-20T02:09:19.922Z,1011.09
2018-08-20T02:10:19.954Z,1011.07
2018-08-20T02:11:19.971Z,1011.09
2018-08-20T02:12:19.996Z,1011.12
2018-08-20T02:13:20.020Z,1011.08
2018-08-20T02:14:20.043Z,1011.07
2018-08-20T02:15:20.069Z,1011.1
2018-08-20T02:16:20.094Z,1011.05
2018-08-20T02:17:20.119Z,1011.09
2018-08-20T02:19:20.167Z,1011.07
2018-08-20T02:20:20.192Z,1011.07
2018-08-20T02:21:20.216Z,1011.08
2018-08-20T02:22:20.244Z,1011.07
2018-08-20T02:23:20.267Z,1011.01
2018-08-20T02:24:20.290Z,1011.03
2018-08-20T02:25:20.314Z,1011.05
2018-08-20T02:26:20.339Z,1010.98
2018-08-20T02:27:20.363Z,1010.99
2018-08-20T02:28:20.388Z,1010.95
2018-08-20T02:29:20.412Z,1010.99
2018-08-20T02:30:20.437Z,1010.96
2018-08-20T02:31:20.462Z,1010.91
2018-08-20T02:32:20.486Z,1010.96
2018-08-20T02:33:20.510Z,1010.91
2018-08-20T02:35:20.562Z,1010.89
2018-08-20T02:36:20.583Z,1010.9
2018-08-20T02:37:20.606Z,1010.91
2018-08-20T02:38:20.632Z,1010.88
2018-08-20T02:39:20.657Z,1010.9
2018-08-20T02:40:20.681Z,1010.87
2018-08-20T02:41:20.706Z,1010.85
2018-08-20T02:42:20.731Z,1010.85
2018-08-20T02:43:20.753Z,1010.84
2018-08-20T02:44:20.789Z,1010.81
2018-08-20T02:45:20.804Z,1010.82
2018-08-20T02:46:20.828Z,1010.78
2018-08-20T02:47:20.852Z,1010.77
2018-08-20T02:48:20.878Z,1010.76
2018-08-20T02:49:20.902Z,1010.77
2018-08-20T02:51:20.950Z,1010.77
2018-08-20T02:52:20.974Z,1010.74
2018-08-20T02:53:20.999Z,1010.77
2018-08-20T02:54:21.022Z,1010.77
2018-08-20T02:55:21.047Z,1010.75
2018-08-20T02:56:21.071Z,1010.79
2018-08-20T02:57:21.096Z,1010.83
2018-08-20T02:58:21.120Z,1010.78
2018-08-20T02:59:21.145Z,1010.74
2018-08-20T03:00:21.169Z,1010.76
2018-08-20T03:01:21.193Z,1010.77
2018-08-20T03:02:21.218Z,1010.8
2018-08-20T03:03:21.243Z,1010.78
2018-08-20T03:04:21.267Z,1010.76
2018-08-20T03:05:21.293Z,1010.79
2018-08-20T03:07:21.339Z,1010.79
2018-08-20T03:08:21.365Z,1010.76
2018-08-20T03:09:21.389Z,1010.73
2018-08-20T03:10:21.412Z,1010.79
2018-08-20T03:11:21.477Z,1010.77
2018-08-20T03:12:21.461Z,1010.78
2018-08-20T03:13:21.485Z,1010.78
2018-08-20T03:14:21.513Z,1010.75
2018-08-20T03:15:21.534Z,1010.76
2018-08-20T03:16:21.618Z,1010.76
2018-08-20T03:17:21.646Z,1010.77
2018-08-20T03:18:21.608Z,1010.76
2018-08-20T03:19:21.633Z,1010.75
2018-08-20T03:20:21.657Z,1010.73
2018-08-20T03:22:21.707Z,1010.75
2018-08-20T03:23:21.733Z,1010.73
2018-08-20T03:24:21.759Z,1010.71
2018-08-20T03:25:21.779Z,1010.75
2018-08-20T03:26:21.804Z,1010.7
2018-08-20T03:27:21.828Z,1010.69
2018-08-20T03:28:21.852Z,1010.72
2018-08-20T03:29:21.877Z,1010.69
2018-08-20T03:30:21.902Z,1010.71
2018-08-20T03:31:21.926Z,1010.71
2018-08-20T03:32:21.957Z,1010.74
2018-08-20T03:33:21.974Z,1010.74
2018-08-20T03:34:21.997Z,1010.71
2018-08-20T03:35:22.027Z,1010.71
2018-08-20T03:36:22.048Z,1010.7
2018-08-20T03:37:22.074Z,1010.71
2018-08-20T03:38:22.095Z,1010.71
2018-08-20T03:39:22.123Z,1010.75
2018-08-20T03:40:22.159Z,1010.73
2018-08-20T03:41:22.169Z,1010.75
2018-08-20T03:42:22.192Z,1010.72
2018-08-20T03:43:22.217Z,1010.73
2018-08-20T03:44:22.242Z,1010.72
2018-08-20T03:45:22.266Z,1010.71
2018-08-20T03:46:22.293Z,1010.75
2018-08-20T03:47:22.314Z,1010.74
2018-08-20T03:48:22.339Z,1010.79
2018-08-20T03:49:22.362Z,1010.77
2018-08-20T03:50:22.391Z,1010.79
2018-08-20T03:51:22.411Z,1010.79
2018-08-20T03:52:22.436Z,1010.81
2018-08-20T03:54:22.485Z,1010.79
2018-08-20T03:55:22.509Z,1010.8
2018-08-20T03:56:22.532Z,1010.8
2018-08-20T03:57:22.559Z,1010.78
2018-08-20T03:58:22.582Z,1010.77
2018-08-20T03:59:22.756Z,1010.76
2018-08-20T04:00:22.633Z,1010.78
2018-08-20T04:01:22.654Z,1010.79
2018-08-20T04:02:22.679Z,1010.78
2018-08-20T04:03:22.703Z,1010.75
2018-08-20T04:04:22.725Z,1010.76
2018-08-20T04:05:22.754Z,1010.78
2018-08-20T04:06:22.776Z,1010.77
2018-08-20T04:07:22.802Z,1010.77
2018-08-20T04:08:22.823Z,1010.76
2018-08-20T04:10:22.873Z,1010.79
2018-08-20T04:11:22.896Z,1010.79
2018-08-20T04:12:22.921Z,1010.8
2018-08-20T04:13:22.945Z,1010.79
2018-08-20T04:14:22.974Z,1010.84
2018-08-20T04:15:22.996Z,1010.8
2018-08-20T04:16:23.018Z,1010.83
2018-08-20T04:17:23.084Z,1010.84
2018-08-20T04:18:23.067Z,1010.82
2018-08-20T04:19:23.092Z,1010.87
2018-08-20T04:20:23.115Z,1010.85
2018-08-20T04:21:23.140Z,1010.87
2018-08-20T04:22:23.175Z,1010.87
2018-08-20T04:23:23.189Z,1010.87
2018-08-20T04:24:23.216Z,1010.87
2018-08-20T04:26:23.261Z,1010.85
2018-08-20T04:27:23.285Z,1010.87
2018-08-20T04:28:23.309Z,1010.87
2018-08-20T04:29:23.334Z,1010.9
2018-08-20T04:30:23.358Z,1010.86
2018-08-20T04:31:23.392Z,1010.91
2018-08-20T04:32:23.408Z,1010.92
2018-08-20T04:33:23.432Z,1010.93
2018-08-20T04:34:23.457Z,1010.95
2018-08-20T04:35:23.481Z,1010.97
2018-08-20T04:36:23.551Z,1010.96
2018-08-20T04:37:23.527Z,1010.95
2018-08-20T04:38:23.553Z,1010.94
2018-08-20T04:39:23.577Z,1010.98
2018-08-20T04:40:23.601Z,1010.95
2018-08-20T04:42:23.655Z,1010.97
2018-08-20T04:43:23.675Z,1010.97
2018-08-20T04:44:23.699Z,1010.99
2018-08-20T04:45:23.724Z,1010.97
2018-08-20T04:46:23.753Z,1010.97
2018-08-20T04:47:23.774Z,1011.01
2018-08-20T04:48:23.797Z,1011.03
2018-08-20T04:49:23.825Z,1011.05
2018-08-20T04:50:24.052Z,1011.05
2018-08-20T04:51:23.985Z,1011.02
2018-08-20T04:52:23.896Z,1011.03
2018-08-20T04:53:23.921Z,1011.03
2018-08-20T04:54:23.945Z,1011.06
2018-08-20T04:55:23.968Z,1011.12
2018-08-20T04:57:24.019Z,1011.15
2018-08-20T04:58:24.044Z,1011.21
2018-08-20T04:59:24.069Z,1011.16
2018-08-20T05:00:24.093Z,1011.18
2018-08-20T05:01:24.120Z,1011.21
2018-08-20T05:02:24.145Z,1011.26
2018-08-20T05:03:24.170Z,1011.23
2018-08-20T05:04:24.195Z,1011.22
2018-08-20T05:05:24.221Z,1011.22
2018-08-20T05:06:24.248Z,1011.24
2018-08-20T05:07:24.273Z,1011.27
2018-08-20T05:08:24.301Z,1011.28
2018-08-20T05:09:24.326Z,1011.32
2018-08-20T05:10:24.470Z,1011.35
2018-08-20T05:11:24.381Z,1011.36
2018-08-20T05:12:24.407Z,1011.39
2018-08-20T05:13:24.438Z,1011.44
2018-08-20T05:14:24.462Z,1011.45
2018-08-20T05:15:24.490Z,1011.48
2018-08-20T05:16:24.516Z,1011.45
2018-08-20T05:17:24.545Z,1011.49
2018-08-20T05:18:24.571Z,1011.48
2018-08-20T05:19:24.606Z,1011.46
2018-08-20T05:20:24.631Z,1011.47
2018-08-20T05:21:24.657Z,1011.5
2018-08-20T05:22:24.687Z,1011.5
2018-08-20T05:23:24.715Z,1011.53
2018-08-20T05:24:24.744Z,1011.55
2018-08-20T05:25:24.773Z,1011.56
2018-08-20T05:26:24.804Z,1011.53
2018-08-20T05:27:24.831Z,1011.58
2018-08-20T05:29:24.940Z,1011.6
2018-08-20T05:30:24.920Z,1011.65
2018-08-20T05:31:24.949Z,1011.64
2018-08-20T05:32:24.980Z,1011.67
2018-08-20T05:33:25.034Z,1011.68
2018-08-20T05:34:25.039Z,1011.71
2018-08-20T05:35:25.070Z,1011.71
2018-08-20T05:36:25.100Z,1011.68
2018-08-20T05:37:25.131Z,1011.71
2018-08-20T05:38:25.161Z,1011.7
2018-08-20T05:39:25.192Z,1011.72
2018-08-20T05:40:25.222Z,1011.78
2018-08-20T05:41:25.254Z,1011.81
2018-08-20T05:42:25.283Z,1011.85
2018-08-20T05:43:25.315Z,1011.8
2018-08-20T05:45:25.377Z,1011.97
2018-08-20T05:46:25.408Z,1011.97
2018-08-20T05:47:25.440Z,1011.83
2018-08-20T05:48:25.471Z,1011.73
2018-08-20T05:49:25.523Z,1011.59
2018-08-20T05:50:25.533Z,1011.61
2018-08-20T05:51:25.565Z,1011.55
2018-08-20T05:52:25.603Z,1011.55
2018-08-20T05:53:25.630Z,1011.51
2018-08-20T05:54:25.657Z,1011.64
2018-08-20T05:55:25.687Z,1011.61
2018-08-20T05:56:25.718Z,1011.61
2018-08-20T05:57:25.748Z,1011.74
2018-08-20T05:58:25.778Z,1011.67
2018-08-20T05:59:25.811Z,1011.64
2018-08-20T06:01:25.868Z,1011.89
2018-08-20T06:02:25.897Z,1012.29
2018-08-20T06:03:25.928Z,1012.36
2018-08-20T06:04:25.957Z,1011.82
2018-08-20T06:05:25.987Z,1012.49
2018-08-20T06:06:26.018Z,1012.05
2018-08-20T06:07:26.048Z,1012.35
2018-08-20T06:08:26.078Z,1011.88
2018-08-20T06:09:26.108Z,1011.91
2018-08-20T06:10:26.138Z,1011.98
2018-08-20T06:11:26.168Z,1012.09
2018-08-20T06:12:26.201Z,1011.93
2018-08-20T06:13:26.232Z,1012.17
2018-08-20T06:14:26.263Z,1011.89
2018-08-20T06:15:26.294Z,1012.22
2018-08-20T06:17:26.354Z,1011.86
2018-08-20T06:18:26.387Z,1011.84
2018-08-20T06:19:26.417Z,1012.27
2018-08-20T06:20:26.558Z,1011.88
2018-08-20T06:21:26.478Z,1011.85
2018-08-20T06:22:26.533Z,1012.66
2018-08-20T06:23:26.539Z,1012.92
2018-08-20T06:24:26.567Z,1012.04
2018-08-20T06:25:26.602Z,1012.14
2018-08-20T06:26:26.628Z,1013.08
2018-08-20T06:27:26.660Z,1012.08
2018-08-20T06:28:26.708Z,1012.15
2018-08-20T06:29:26.721Z,1012.69
2018-08-20T06:30:26.754Z,1012.4
2018-08-20T06:32:26.816Z,1012.09
2018-08-20T06:33:26.847Z,1012.28
2018-08-20T06:34:26.878Z,1012.08
2018-08-20T06:35:26.932Z,1012.11
2018-08-20T06:36:26.940Z,1012.12
2018-08-20T06:37:26.971Z,1012.23
2018-08-20T06:38:27.002Z,1012.19
2018-08-20T06:39:27.032Z,1012.15
2018-08-20T06:40:27.063Z,1012.2
2018-08-20T06:41:27.129Z,1012.14
2018-08-20T06:42:27.126Z,1012.12
2018-08-20T06:43:27.157Z,1012.06
2018-08-20T06:44:27.188Z,1012.03
2018-08-20T06:45:27.218Z,1012.24
2018-08-20T06:46:27.249Z,1012.52
2018-08-20T06:47:27.281Z,1012.44
2018-08-20T06:48:27.309Z,1012.1
2018-08-20T06:49:27.342Z,1012.15
2018-08-20T06:50:27.372Z,1012.04
2018-08-20T06:51:27.403Z,1011.98
2018-08-20T06:52:27.433Z,1011.95
2018-08-20T06:53:27.464Z,1011.92
2018-08-20T06:54:27.546Z,1012.91
2018-08-20T06:55:27.526Z,1011.96
2018-08-20T06:56:27.555Z,1012
2018-08-20T06:57:27.587Z,1012.24
2018-08-20T06:58:27.619Z,1012.33
2018-08-20T06:59:27.648Z,1012.16
2018-08-20T07:00:27.679Z,1012.07
2018-08-20T07:01:27.709Z,1012.98
2018-08-20T07:02:27.740Z,1012.31
2018-08-20T07:04:27.802Z,1012.78
2018-08-20T07:05:27.832Z,1012.8
2018-08-20T07:06:27.933Z,1012.83
2018-08-20T07:07:27.896Z,1012.84
2018-08-20T07:08:27.929Z,1012.73
2018-08-20T07:09:28.010Z,1012.73
2018-08-20T07:10:27.992Z,1012.75
2018-08-20T07:11:28.024Z,1012.73
2018-08-20T07:12:28.057Z,1012.57
2018-08-20T07:13:28.090Z,1012.38
2018-08-20T07:14:28.122Z,1012.03
2018-08-20T07:15:28.156Z,1012.19
2018-08-20T07:16:28.191Z,1012.19
2018-08-20T07:17:28.269Z,1012.16
2018-08-20T07:18:28.256Z,1012.02
2018-08-20T07:20:28.322Z,1011.93
2018-08-20T07:21:28.355Z,1012.03
2018-08-20T07:22:28.388Z,1012.24
2018-08-20T07:23:28.508Z,1012.04
2018-08-20T07:24:28.554Z,1012.05
2018-08-20T07:25:28.486Z,1011.91
2018-08-20T07:26:28.519Z,1011.88
2018-08-20T07:27:28.551Z,1011.91
2018-08-20T07:28:28.584Z,1011.96
2018-08-20T07:29:28.615Z,1012
2018-08-20T07:30:28.647Z,1011.94
2018-08-20T07:31:28.679Z,1011.95
2018-08-20T07:32:28.711Z,1011.95
2018-08-20T07:33:28.740Z,1012.04
2018-08-20T07:34:28.772Z,1011.97
2018-08-20T07:36:28.833Z,1011.98
2018-08-20T07:37:28.866Z,1011.99
2018-08-20T07:38:28.893Z,1012.06
2018-08-20T07:39:28.923Z,1012.1
2018-08-20T07:40:28.951Z,1012.07
2018-08-20T07:41:28.983Z,1012.09
2018-08-20T07:42:29.093Z,1012.12
2018-08-20T07:43:29.043Z,1012.16
2018-08-20T07:44:29.072Z,1012.23
2018-08-20T07:45:29.103Z,1012.2
2018-08-20T07:46:29.129Z,1012.21
2018-08-20T07:47:29.159Z,1012.22
2018-08-20T07:48:29.187Z,1012.24
2018-08-20T07:49:29.218Z,1012.25
2018-08-20T07:50:29.246Z,1012.26
2018-08-20T07:52:29.306Z,1012.29
2018-08-20T07:53:29.335Z,1012.26
2018-08-20T07:54:29.363Z,1012.32
2018-08-20T07:55:29.402Z,1012.31
2018-08-20T07:56:29.422Z,1012.3
2018-08-20T07:57:29.451Z,1012.28
2018-08-20T07:58:29.482Z,1012.31
2018-08-20T07:59:29.510Z,1012.28
2018-08-20T08:00:29.540Z,1012.32
2018-08-20T08:01:29.568Z,1012.35
2018-08-20T08:02:29.597Z,1012.29
2018-08-20T08:03:29.627Z,1012.33
2018-08-20T08:04:29.657Z,1012.33
2018-08-20T08:05:29.685Z,1012.31
2018-08-20T08:07:29.745Z,1012.28
2018-08-20T08:08:29.773Z,1012.32
2018-08-20T08:09:29.803Z,1012.28
2018-08-20T08:10:29.834Z,1012.28
2018-08-20T08:11:29.861Z,1012.35
2018-08-20T08:12:29.889Z,1012.35
2018-08-20T08:13:30.019Z,1012.29
2018-08-20T08:14:29.949Z,1012.34
2018-08-20T08:15:29.975Z,1012.27
2018-08-20T08:16:30.005Z,1012.3
2018-08-20T08:17:30.034Z,1012.31
2018-08-20T08:18:30.063Z,1012.3
2018-08-20T08:19:30.091Z,1012.36
2018-08-20T08:20:30.122Z,1012.34
2018-08-20T08:21:30.150Z,1012.36
2018-08-20T08:22:30.179Z,1012.31
2018-08-20T08:23:30.206Z,1012.35
2018-08-20T08:24:30.235Z,1012.35
2018-08-20T08:25:30.263Z,1012.36
2018-08-20T08:26:30.337Z,1012.39
2018-08-20T08:27:30.321Z,1012.32
2018-08-20T08:28:30.350Z,1012.35
2018-08-20T08:29:30.378Z,1012.35
2018-08-20T08:30:30.406Z,1012.36
2018-08-20T08:31:30.433Z,1012.36
2018-08-20T08:32:30.461Z,1012.38
2018-08-20T08:33:30.495Z,1012.31
2018-08-20T08:34:30.519Z,1012.4
2018-08-20T08:35:30.547Z,1012.35
2018-08-20T08:36:30.576Z,1012.36
2018-08-20T08:37:30.603Z,1012.4
2018-08-20T08:39:30.662Z,1012.37
2018-08-20T08:40:30.688Z,1012.36
2018-08-20T08:41:30.715Z,1012.38
2018-08-20T08:42:30.744Z,1012.31
2018-08-20T08:43:30.772Z,1012.35
2018-08-20T08:44:30.801Z,1012.4
2018-08-20T08:45:30.829Z,1012.42
2018-08-20T08:46:30.856Z,1012.41
2018-08-20T08:47:30.887Z,1012.48
2018-08-20T08:48:30.911Z,1012.44
2018-08-20T08:49:30.940Z,1012.49
2018-08-20T08:50:30.968Z,1012.49
2018-08-20T08:51:30.996Z,1012.57
2018-08-20T08:52:31.023Z,1012.47
2018-08-20T08:53:31.053Z,1012.46
2018-08-20T08:55:31.108Z,1012.49
2018-08-20T08:56:31.135Z,1012.46
2018-08-20T08:57:31.163Z,1012.48
2018-08-20T08:58:31.192Z,1012.42
2018-08-20T08:59:31.217Z,1012.44
2018-08-20T09:00:31.275Z,1012.4
2018-08-20T09:01:31.274Z,1012.46
2018-08-20T09:02:31.302Z,1012.44
2018-08-20T09:03:31.333Z,1012.4
2018-08-20T09:04:31.357Z,1012.38
2018-08-20T09:05:31.386Z,1012.38
2018-08-20T09:06:31.415Z,1012.4
2018-08-20T09:07:31.440Z,1012.43
2018-08-20T09:08:31.467Z,1012.42
2018-08-20T09:09:31.500Z,1012.39
2018-08-20T09:11:31.552Z,1012.4
2018-08-20T09:12:31.580Z,1012.39
2018-08-20T09:13:31.623Z,1012.37
2018-08-20T09:14:31.635Z,1012.41
2018-08-20T09:15:31.663Z,1012.45
2018-08-20T09:16:31.691Z,1012.37
2018-08-20T09:17:31.718Z,1012.44
2018-08-20T09:18:31.745Z,1012.43
2018-08-20T09:19:31.778Z,1012.48
2018-08-20T09:20:31.845Z,1012.39
2018-08-20T09:21:31.828Z,1012.34
2018-08-20T09:22:31.856Z,1012.41
2018-08-20T09:23:31.886Z,1012.37
2018-08-20T09:24:31.913Z,1012.4
2018-08-20T09:25:31.941Z,1012.37
2018-08-20T09:27:31.996Z,1012.43
2018-08-20T09:28:32.025Z,1012.34
2018-08-20T09:29:32.058Z,1012.36
2018-08-20T09:30:32.080Z,1012.41
2018-08-20T09:31:32.109Z,1012.35
2018-08-20T09:32:32.137Z,1012.36
2018-08-20T09:33:32.164Z,1012.4
2018-08-20T09:34:32.192Z,1012.39
2018-08-20T09:35:32.221Z,1012.35
2018-08-20T09:36:32.249Z,1012.4
2018-08-20T09:37:32.278Z,1012.39
2018-08-20T09:38:32.308Z,1012.38
2018-08-20T09:39:32.333Z,1012.44
2018-08-20T09:40:32.362Z,1012.41
2018-08-20T09:42:32.418Z,1012.44
2018-08-20T09:43:32.446Z,1012.46
2018-08-20T09:44:32.474Z,1012.46
2018-08-20T09:45:32.502Z,1012.42
2018-08-20T09:46:32.531Z,1012.43
2018-08-20T09:47:32.560Z,1012.42
2018-08-20T09:48:32.586Z,1012.44
2018-08-20T09:49:32.615Z,1012.34
2018-08-20T09:50:32.640Z,1012.41
2018-08-20T09:51:32.670Z,1012.38
2018-08-20T09:52:32.698Z,1012.42
2018-08-20T09:53:32.824Z,1012.35
2018-08-20T09:54:32.755Z,1012.35
2018-08-20T09:55:32.782Z,1012.4
2018-08-20T09:56:32.811Z,1012.46
2018-08-20T09:57:32.839Z,1012.44
2018-08-20T09:58:32.866Z,1012.42
2018-08-20T09:59:32.894Z,1012.41
2018-08-20T10:00:32.923Z,1012.42
2018-08-20T10:01:32.950Z,1012.37
2018-08-20T10:02:32.978Z,1012.39
2018-08-20T10:03:33.007Z,1012.37
2018-08-20T10:04:33.035Z,1012.38
2018-08-20T10:05:33.061Z,1012.4
2018-08-20T10:06:33.088Z,1012.38
2018-08-20T10:07:33.301Z,1012.36
2018-08-20T10:08:33.200Z,1012.39
2018-08-20T10:09:33.203Z,1012.37
2018-08-20T10:10:33.199Z,1012.31
2018-08-20T10:11:33.227Z,1012.36
2018-08-20T10:12:33.254Z,1012.36
2018-08-20T10:14:33.308Z,1012.39
2018-08-20T10:15:33.337Z,1012.38
2018-08-20T10:16:33.363Z,1012.39
2018-08-20T10:17:33.391Z,1012.32
2018-08-20T10:18:33.461Z,1012.48
2018-08-20T10:19:33.447Z,1012.37
2018-08-20T10:20:33.474Z,1012.43
2018-08-20T10:21:33.502Z,1012.42
2018-08-20T10:22:33.528Z,1012.35
2018-08-20T10:23:33.558Z,1012.43
2018-08-20T10:24:33.602Z,1012.4
2018-08-20T10:25:33.609Z,1012.36
2018-08-20T10:26:33.637Z,1012.44
2018-08-20T10:27:33.664Z,1012.36
2018-08-20T10:28:33.693Z,1012.41
2018-08-20T10:30:33.747Z,1012.48
2018-08-20T10:31:33.774Z,1012.39
2018-08-20T10:32:33.801Z,1012.41
2018-08-20T10:33:33.828Z,1012.38
2018-08-20T10:34:33.855Z,1012.38
2018-08-20T10:35:33.882Z,1012.42
2018-08-20T10:36:33.910Z,1012.4
2018-08-20T10:37:33.989Z,1012.43
2018-08-20T10:38:33.965Z,1012.43
2018-08-20T10:39:33.992Z,1012.42
2018-08-20T10:40:34.019Z,1012.43
2018-08-20T10:41:34.045Z,1012.42
2018-08-20T10:42:34.072Z,1012.42
2018-08-20T10:43:34.119Z,1012.46
2018-08-20T10:44:34.128Z,1012.43
2018-08-20T10:46:34.181Z,1012.47
2018-08-20T10:47:34.209Z,1012.47
2018-08-20T10:48:34.235Z,1012.49
2018-08-20T10:49:34.262Z,1012.53
2018-08-20T10:50:34.290Z,1012.55
2018-08-20T10:51:34.317Z,1012.53
2018-08-20T10:52:34.346Z,1012.52
2018-08-20T10:53:34.373Z,1012.52
2018-08-20T10:54:34.399Z,1012.54
2018-08-20T10:55:34.427Z,1012.54
2018-08-20T10:56:34.453Z,1012.53
2018-08-20T10:57:34.481Z,1012.56
2018-08-20T10:58:34.509Z,1012.55
2018-08-20T10:59:34.535Z,1012.54
2018-08-20T11:00:34.562Z,1012.56
2018-08-20T11:02:34.618Z,1012.52
2018-08-20T11:03:34.644Z,1012.56
2018-08-20T11:04:34.673Z,1012.53
2018-08-20T11:05:34.701Z,1012.56
2018-08-20T11:06:34.730Z,1012.53
2018-08-20T11:07:34.755Z,1012.65
2018-08-20T11:08:34.783Z,1012.54
2018-08-20T11:09:34.812Z,1012.47
2018-08-20T11:10:34.842Z,1012.56
2018-08-20T11:11:34.866Z,1012.58
2018-08-20T11:12:34.895Z,1012.51
2018-08-20T11:13:34.924Z,1012.54
2018-08-20T11:14:34.951Z,1012.56
2018-08-20T11:15:34.979Z,1012.52
2018-08-20T11:17:35.037Z,1012.47
2018-08-20T11:18:35.248Z,1012.49
2018-08-20T11:19:35.093Z,1012.49
2018-08-20T11:20:35.121Z,1012.46
2018-08-20T11:21:35.150Z,1012.49
2018-08-20T11:22:35.177Z,1012.45
2018-08-20T11:23:35.204Z,1012.47
2018-08-20T11:24:35.284Z,1012.47
2018-08-20T11:25:35.262Z,1012.45
2018-08-20T11:26:35.290Z,1012.49
2018-08-20T11:27:35.381Z,1012.48
2018-08-20T11:28:35.346Z,1012.43
2018-08-20T11:29:35.375Z,1012.51
2018-08-20T11:30:35.403Z,1012.51
2018-08-20T11:31:35.431Z,1012.44
2018-08-20T11:32:35.461Z,1012.47
2018-08-20T11:33:35.487Z,1012.48
2018-08-20T11:34:35.518Z,1012.49
2018-08-20T11:35:35.544Z,1012.5
2018-08-20T11:36:35.576Z,1012.52
2018-08-20T11:37:35.598Z,1012.47
2018-08-20T11:38:35.627Z,1012.46
2018-08-20T11:39:35.659Z,1012.48
2018-08-20T11:40:35.682Z,1012.58
2018-08-20T11:41:35.710Z,1012.55
2018-08-20T11:42:35.738Z,1012.51
2018-08-20T11:43:35.767Z,1012.51
2018-08-20T11:44:35.793Z,1012.57
2018-08-20T11:45:35.821Z,1012.54
2018-08-20T11:46:35.950Z,1012.54
2018-08-20T11:47:35.876Z,1012.49
2018-08-20T11:49:35.932Z,1012.51
2018-08-20T11:50:35.961Z,1012.48
2018-08-20T11:51:35.986Z,1012.43
2018-08-20T11:52:36.017Z,1012.49
2018-08-20T11:53:36.043Z,1012.53
2018-08-20T11:54:36.075Z,1012.5
2018-08-20T11:55:36.096Z,1012.56
2018-08-20T11:56:36.126Z,1012.41
2018-08-20T11:57:36.153Z,1012.52
2018-08-20T11:58:36.181Z,1012.51
2018-08-20T11:59:36.213Z,1012.54
2018-08-20T12:00:36.236Z,1012.55
2018-08-20T12:01:36.264Z,1012.51
2018-08-20T12:02:36.289Z,1012.51
2018-08-20T12:03:36.320Z,1012.47
2018-08-20T12:05:36.371Z,1012.51
2018-08-20T12:06:36.398Z,1012.48
2018-08-20T12:07:36.452Z,1012.53
2018-08-20T12:08:36.477Z,1012.57
2018-08-20T12:09:36.480Z,1012.6
2018-08-20T12:10:36.507Z,1012.53
2018-08-20T12:11:36.534Z,1012.56
2018-08-20T12:12:36.568Z,1012.56
2018-08-20T12:13:36.588Z,1012.58
2018-08-20T12:14:36.615Z,1012.55
2018-08-20T12:15:36.648Z,1012.55
2018-08-20T12:16:36.670Z,1012.56
2018-08-20T12:17:36.697Z,1012.59
2018-08-20T12:18:36.724Z,1012.6
2018-08-20T12:19:36.751Z,1012.63
2018-08-20T12:21:36.804Z,1012.57
2018-08-20T12:22:36.830Z,1012.54
2018-08-20T12:23:36.858Z,1012.56
2018-08-20T12:24:36.884Z,1012.52
2018-08-20T12:25:36.911Z,1012.54
2018-08-20T12:26:36.938Z,1012.56
2018-08-20T12:27:36.965Z,1012.61
2018-08-20T12:28:36.992Z,1012.58
2018-08-20T12:29:37.019Z,1012.69
2018-08-20T12:30:37.046Z,1012.65
2018-08-20T12:31:37.072Z,1012.66
2018-08-20T12:32:37.098Z,1012.67
2018-08-20T12:33:37.125Z,1012.68
2018-08-20T12:34:37.153Z,1012.66
2018-08-20T12:35:37.179Z,1012.63
2018-08-20T12:37:37.232Z,1012.67
2018-08-20T12:38:37.260Z,1012.64
2018-08-20T12:39:37.284Z,1012.66
2018-08-20T12:40:37.312Z,1012.71
2018-08-20T12:41:37.339Z,1012.7
2018-08-20T12:42:37.365Z,1012.65
2018-08-20T12:43:37.392Z,1012.66
2018-08-20T12:44:37.422Z,1012.67
2018-08-20T12:45:37.447Z,1012.69
2018-08-20T12:46:37.473Z,1012.7
2018-08-20T12:47:37.501Z,1012.72